createdAt,value
2023-01-29T00:00:46.629Z,98601.73
2023-01-29T00:03:37.807Z,98600.66
2023-01-29T00:06:10.576Z,98601.97
2023-01-29T00:08:41.729Z,98598.48
2023-01-29T00:11:12.856Z,98602.98
2023-01-29T00:13:44.066Z,98605.62
2023-01-29T00:16:15.539Z,98612.02
2023-01-29T00:18:46.819Z,98610.39
2023-01-29T00:21:20.368Z,98611.52
2023-01-29T00:23:52.550Z,98612.83
2023-01-29T00:26:24.057Z,98609.37
2023-01-29T00:28:57.080Z,98609.88
2023-01-29T00:31:28.404Z,98613.60
2023-01-29T00:33:59.572Z,98617.48
2023-01-29T00:36:30.862Z,98614.58
2023-01-29T00:39:10.995Z,98617.52
2023-01-29T00:41:59.748Z,98626.45
2023-01-29T00:44:48.390Z,98629.44
2023-01-29T00:47:33.493Z,98621.98
2023-01-29T00:50:06.708Z,98613.38
2023-01-29T00:52:37.787Z,98611.48
2023-01-29T00:55:11.374Z,98610.77
2023-01-29T00:57:42.351Z,98597.73
2023-01-29T01:00:17.517Z,98588.08
2023-01-29T01:03:07.348Z,98586.73
2023-01-29T01:05:39.297Z,98589.87
2023-01-29T01:08:28.877Z,98588.12
2023-01-29T01:11:04.769Z,98584.33
2023-01-29T01:13:36.314Z,98585.61
2023-01-29T01:16:09.827Z,98586.95
2023-01-29T01:18:40.911Z,98578.27
2023-01-29T01:21:12.127Z,98579.39
2023-01-29T01:23:43.240Z,98585.52
2023-01-29T01:26:14.409Z,98584.16
2023-01-29T01:28:45.589Z,98581.33
2023-01-29T01:31:16.938Z,98575.20
2023-01-29T01:33:48.125Z,98564.65
2023-01-29T01:36:19.310Z,98567.80
2023-01-29T01:38:50.554Z,98567.80
2023-01-29T01:41:24.129Z,98561.82
2023-01-29T01:43:58.367Z,98564.27
2023-01-29T01:46:31.908Z,98567.76
2023-01-29T01:49:08.546Z,98573.26
2023-01-29T01:51:42.698Z,98571.98
2023-01-29T01:54:18.002Z,98576.48
2023-01-29T01:56:55.552Z,98582.52
2023-01-29T01:59:27.005Z,98584.54
2023-01-29T02:01:58.455Z,98589.89
2023-01-29T02:04:47.456Z,98591.86
2023-01-29T02:07:36.633Z,98585.74
2023-01-29T02:10:15.401Z,98584.88
2023-01-29T02:12:49.061Z,98583.20
2023-01-29T02:15:20.311Z,98574.75
2023-01-29T02:17:51.632Z,98568.79
2023-01-29T02:20:28.363Z,98564.52
2023-01-29T02:23:17.067Z,98560.37
2023-01-29T02:26:01.211Z,98559.83
2023-01-29T02:28:40.952Z,98559.02
2023-01-29T02:31:18.417Z,98559.33
2023-01-29T02:34:07.954Z,98564.95
2023-01-29T02:36:46.951Z,98560.77
2023-01-29T02:39:24.715Z,98567.47
2023-01-29T02:42:01.858Z,98567.23
2023-01-29T02:44:39.898Z,98567.16
2023-01-29T02:47:18.791Z,98572.27
2023-01-29T02:49:56.896Z,98576.80
2023-01-29T02:52:34.421Z,98579.52
2023-01-29T02:55:11.244Z,98584.73
2023-01-29T02:57:44.521Z,98583.13
2023-01-29T03:00:20.269Z,98584.25
2023-01-29T03:02:57.575Z,98579.69
2023-01-29T03:05:33.789Z,98579.41
2023-01-29T03:08:11.337Z,98575.65
2023-01-29T03:10:45.912Z,98578.41
2023-01-29T03:13:22.369Z,98576.52
2023-01-29T03:16:01.708Z,98576.39
2023-01-29T03:18:34.480Z,98570.05
2023-01-29T03:21:30.306Z,98570.81
2023-01-29T03:24:20.451Z,98566.16
2023-01-29T03:27:09.721Z,98565.39
2023-01-29T03:30:00.803Z,98563.10
2023-01-29T03:32:33.212Z,98564.33
2023-01-29T03:35:09.099Z,98559.77
2023-01-29T03:37:46.178Z,98551.34
2023-01-29T03:40:18.270Z,98546.14
2023-01-29T03:43:06.909Z,98550.30
2023-01-29T03:45:49.405Z,98557.92
2023-01-29T03:48:32.431Z,98553.43
2023-01-29T03:51:12.246Z,98559.74
2023-01-29T03:53:49.108Z,98559.31
2023-01-29T03:56:34.325Z,98562.83
2023-01-29T03:59:14.009Z,98568.48
2023-01-29T04:01:50.135Z,98570.59
2023-01-29T04:04:26.001Z,98571.91
2023-01-29T04:07:01.389Z,98557.73
2023-01-29T04:09:37.459Z,98540.51
2023-01-29T04:12:11.747Z,98545.08
2023-01-29T04:14:46.481Z,98557.59
2023-01-29T04:17:21.282Z,98554.26
2023-01-29T04:19:53.166Z,98551.65
2023-01-29T04:22:27.694Z,98553.83
2023-01-29T04:25:03.001Z,98543.42
2023-01-29T04:27:43.732Z,98543.93
2023-01-29T04:30:24.847Z,98544.67
2023-01-29T04:33:12.263Z,98541.91
2023-01-29T04:35:53.759Z,98542.64
2023-01-29T04:38:35.382Z,98541.20
2023-01-29T04:41:12.666Z,98542.18
2023-01-29T04:43:49.451Z,98533.82
2023-01-29T04:46:27.064Z,98530.91
2023-01-29T04:49:13.545Z,98530.17
2023-01-29T04:51:53.402Z,98524.59
2023-01-29T04:54:35.951Z,98533.00
2023-01-29T04:57:15.620Z,98532.66
2023-01-29T04:59:52.058Z,98531.10
2023-01-29T05:02:25.688Z,98527.56
2023-01-29T05:04:58.685Z,98527.69
2023-01-29T05:07:35.178Z,98519.48
2023-01-29T05:10:09.400Z,98517.92
2023-01-29T05:12:42.214Z,98512.27
2023-01-29T05:15:17.202Z,98511.73
2023-01-29T05:17:48.647Z,98512.70
2023-01-29T05:20:20.910Z,98512.98
2023-01-29T05:22:52.162Z,98509.08
2023-01-29T05:25:26.666Z,98502.60
2023-01-29T05:28:07.418Z,98497.05
2023-01-29T05:30:40.116Z,98496.83
2023-01-29T05:33:16.849Z,98499.80
2023-01-29T05:35:48.867Z,98495.23
2023-01-29T05:38:20.528Z,98494.61
2023-01-29T05:40:52.154Z,98497.55
2023-01-29T05:43:24.986Z,98495.46
2023-01-29T05:45:57.669Z,98485.52
2023-01-29T05:48:30.032Z,98482.27
2023-01-29T05:51:04.241Z,98485.59
2023-01-29T05:53:35.541Z,98484.85
2023-01-29T05:56:07.493Z,98485.55
2023-01-29T05:58:38.741Z,98488.69
2023-01-29T06:01:16.157Z,98489.61
2023-01-29T06:03:48.151Z,98482.91
2023-01-29T06:06:19.301Z,98486.36
2023-01-29T06:08:50.746Z,98489.02
2023-01-29T06:11:21.817Z,98484.96
2023-01-29T06:13:52.913Z,98485.46
2023-01-29T06:16:24.058Z,98485.84
2023-01-29T06:18:55.064Z,98489.65
2023-01-29T06:21:26.464Z,98496.16
2023-01-29T06:23:57.948Z,98490.86
2023-01-29T06:26:27.509Z,98487.68
2023-01-29T06:28:58.355Z,98480.60
2023-01-29T06:31:38.250Z,98473.56
2023-01-29T06:34:10.484Z,98483.24
2023-01-29T06:36:41.898Z,98485.77
2023-01-29T06:39:13.138Z,98485.27
2023-01-29T06:41:45.449Z,98486.75
2023-01-29T06:44:16.595Z,98494.58
2023-01-29T06:46:47.718Z,98503.34
2023-01-29T06:49:19.130Z,98508.06
2023-01-29T06:51:50.231Z,98511.30
2023-01-29T06:54:21.426Z,98515.45
2023-01-29T06:56:52.835Z,98519.85
2023-01-29T06:59:23.756Z,98516.63
2023-01-29T07:01:55.375Z,98516.79
2023-01-29T07:04:24.725Z,98522.02
2023-01-29T07:06:55.765Z,98531.41
2023-01-29T07:09:26.743Z,98527.92
2023-01-29T07:11:57.849Z,98537.89
2023-01-29T07:14:28.748Z,98547.89
2023-01-29T07:16:59.825Z,98557.77
2023-01-29T07:19:30.808Z,98567.98
2023-01-29T07:22:03.992Z,98569.35
2023-01-29T07:24:35.512Z,98568.30
2023-01-29T07:27:06.759Z,98565.80
2023-01-29T07:29:38.007Z,98573.39
2023-01-29T07:32:09.431Z,98573.27
2023-01-29T07:34:40.656Z,98579.44
2023-01-29T07:37:12.491Z,98582.53
2023-01-29T07:39:43.624Z,98591.87
2023-01-29T07:42:14.747Z,98585.52
2023-01-29T07:44:45.829Z,98580.11
2023-01-29T07:47:17.369Z,98563.56
2023-01-29T07:49:48.615Z,98554.65
2023-01-29T07:52:22.132Z,98560.65
2023-01-29T07:54:53.646Z,98565.47
2023-01-29T07:57:24.996Z,98566.37
2023-01-29T07:59:56.656Z,98577.86
2023-01-29T08:02:26.129Z,98595.06
2023-01-29T08:04:57.167Z,98592.63
2023-01-29T08:07:28.205Z,98586.20
2023-01-29T08:09:59.364Z,98580.65
2023-01-29T08:12:30.505Z,98596.77
2023-01-29T08:15:01.456Z,98595.41
2023-01-29T08:17:32.672Z,98594.17
2023-01-29T08:20:03.853Z,98598.98
2023-01-29T08:22:34.966Z,98591.83
2023-01-29T08:25:08.636Z,98583.04
2023-01-29T08:27:39.920Z,98581.80
2023-01-29T08:30:13.626Z,98576.35
2023-01-29T08:32:44.640Z,98579.30
2023-01-29T08:35:15.939Z,98576.52
2023-01-29T08:37:53.254Z,98574.97
2023-01-29T08:40:24.324Z,98579.45
2023-01-29T08:43:01.979Z,98568.61
2023-01-29T08:45:35.947Z,98555.25
2023-01-29T08:48:07.851Z,98552.31
2023-01-29T08:50:38.948Z,98559.10
2023-01-29T08:53:11.104Z,98552.04
2023-01-29T08:55:43.044Z,98552.32
2023-01-29T08:58:14.345Z,98550.65
2023-01-29T09:00:45.629Z,98539.48
2023-01-29T09:03:17.610Z,98533.70
2023-01-29T09:05:48.637Z,98528.02
2023-01-29T09:08:19.798Z,98528.06
2023-01-29T09:10:51.316Z,98529.11
2023-01-29T09:13:22.285Z,98532.39
2023-01-29T09:15:53.406Z,98532.27
2023-01-29T09:18:24.797Z,98538.08
2023-01-29T09:20:56.252Z,98538.77
2023-01-29T09:23:27.657Z,98536.05
2023-01-29T09:25:57.584Z,98533.99
2023-01-29T09:28:28.866Z,98537.11
2023-01-29T09:31:03.747Z,98539.25
2023-01-29T09:33:34.884Z,98537.27
2023-01-29T09:36:07.663Z,98545.39
2023-01-29T09:38:38.668Z,98549.48
2023-01-29T09:41:24.331Z,98552.05
2023-01-29T09:43:59.208Z,98548.89
2023-01-29T09:46:36.746Z,98554.67
2023-01-29T09:49:13.481Z,98552.50
2023-01-29T09:51:50.210Z,98546.83
2023-01-29T09:54:26.221Z,98550.80
2023-01-29T09:56:59.047Z,98547.66
2023-01-29T09:59:33.373Z,98542.06
2023-01-29T10:02:11.640Z,98532.05
2023-01-29T10:04:59.418Z,98522.00
2023-01-29T10:07:57.981Z,98506.16
2023-01-29T10:10:43.220Z,98499.64
2023-01-29T10:13:28.833Z,98502.78
2023-01-29T10:16:17.396Z,98501.96
2023-01-29T10:19:12.257Z,98496.32
2023-01-29T10:22:09.347Z,98494.36
2023-01-29T10:24:48.050Z,98485.68
2023-01-29T10:27:20.212Z,98490.42
2023-01-29T10:29:54.824Z,98490.40
2023-01-29T10:32:33.802Z,98489.73
2023-01-29T10:35:24.824Z,98483.38
2023-01-29T10:38:01.110Z,98480.73
2023-01-29T10:40:40.704Z,98478.89
2023-01-29T10:43:18.316Z,98476.33
2023-01-29T10:45:57.869Z,98478.38
2023-01-29T10:48:58.933Z,98480.91
2023-01-29T10:51:43.828Z,98478.44
2023-01-29T10:54:30.633Z,98476.20
2023-01-29T10:57:10.697Z,98469.66
2023-01-29T10:59:55.822Z,98466.88
2023-01-29T11:02:26.928Z,98464.57
2023-01-29T11:04:57.885Z,98457.50
2023-01-29T11:07:31.441Z,98463.41
2023-01-29T11:10:09.210Z,98463.54
2023-01-29T11:12:43.870Z,98465.69
2023-01-29T11:15:21.299Z,98461.29
2023-01-29T11:18:14.238Z,98462.06
2023-01-29T11:20:46.673Z,98459.55
2023-01-29T11:23:32.119Z,98463.83
2023-01-29T11:26:04.997Z,98456.91
2023-01-29T11:28:42.195Z,98454.23
2023-01-29T11:31:27.300Z,98455.63
2023-01-29T11:34:07.358Z,98449.55
2023-01-29T11:36:40.619Z,98448.66
2023-01-29T11:39:24.219Z,98437.15
2023-01-29T11:42:00.476Z,98428.42
2023-01-29T11:44:34.254Z,98422.14
2023-01-29T11:47:19.633Z,98412.15
2023-01-29T11:49:53.759Z,98405.10
2023-01-29T11:52:28.605Z,98398.46
2023-01-29T11:55:03.760Z,98394.88
2023-01-29T11:57:37.549Z,98392.04
2023-01-29T12:00:19.770Z,98391.88
2023-01-29T12:02:55.310Z,98386.36
2023-01-29T12:05:28.340Z,98381.95
2023-01-29T12:08:02.218Z,98376.41
2023-01-29T12:10:38.739Z,98374.98
2023-01-29T12:13:27.087Z,98381.14
2023-01-29T12:16:18.359Z,98386.94
2023-01-29T12:18:55.541Z,98392.66
2023-01-29T12:21:36.316Z,98394.02
2023-01-29T12:24:27.435Z,98393.59
2023-01-29T12:27:08.504Z,98385.81
2023-01-29T12:29:48.030Z,98388.92
2023-01-29T12:32:32.381Z,98395.02
2023-01-29T12:35:11.838Z,98396.84
2023-01-29T12:37:53.197Z,98389.67
2023-01-29T12:40:26.513Z,98391.38
2023-01-29T12:43:07.964Z,98384.73
2023-01-29T12:45:40.425Z,98380.14
2023-01-29T12:48:15.432Z,98375.60
2023-01-29T12:50:47.150Z,98369.59
2023-01-29T12:53:27.898Z,98365.85
2023-01-29T12:56:05.502Z,98363.77
2023-01-29T12:58:37.638Z,98364.53
2023-01-29T13:01:16.434Z,98352.75
2023-01-29T13:03:54.865Z,98344.70
2023-01-29T13:06:31.477Z,98342.96
2023-01-29T13:09:05.775Z,98332.48
2023-01-29T13:11:41.916Z,98331.67
2023-01-29T13:14:20.222Z,98322.32
2023-01-29T13:16:55.261Z,98311.60
2023-01-29T13:19:29.736Z,98314.35
2023-01-29T13:22:05.496Z,98313.57
2023-01-29T13:24:40.848Z,98316.76
2023-01-29T13:27:23.230Z,98317.30
2023-01-29T13:29:54.906Z,98315.27
2023-01-29T13:32:28.558Z,98312.34
2023-01-29T13:35:03.855Z,98309.29
2023-01-29T13:37:37.721Z,98313.39
2023-01-29T13:40:20.437Z,98321.52
2023-01-29T13:42:54.488Z,98317.62
2023-01-29T13:45:29.835Z,98318.91
2023-01-29T13:48:13.344Z,98320.24
2023-01-29T13:50:46.815Z,98316.84
2023-01-29T13:53:26.286Z,98315.80
2023-01-29T13:56:43.325Z,98313.34
2023-01-29T13:59:46.123Z,98309.61
2023-01-29T14:02:26.994Z,98315.42
2023-01-29T14:05:28.641Z,98315.39
2023-01-29T14:08:00.612Z,98308.60
2023-01-29T14:10:33.825Z,98308.62
2023-01-29T14:13:35.454Z,98309.18
2023-01-29T14:16:33.697Z,98309.07
2023-01-29T14:19:06.440Z,98308.67
2023-01-29T14:21:39.756Z,98301.10
2023-01-29T14:24:20.978Z,98298.71
2023-01-29T14:26:57.285Z,98298.39
2023-01-29T14:29:35.421Z,98305.10
2023-01-29T14:32:20.514Z,98306.23
2023-01-29T14:34:56.876Z,98306.26
2023-01-29T14:37:33.370Z,98303.58
2023-01-29T14:40:20.870Z,98301.42
2023-01-29T14:43:01.521Z,98295.63
2023-01-29T14:45:34.384Z,98296.33
2023-01-29T14:48:20.779Z,98288.95
2023-01-29T14:50:55.268Z,98290.08
2023-01-29T14:53:46.366Z,98285.14
2023-01-29T14:56:22.708Z,98287.63
2023-01-29T14:58:58.547Z,98292.56
2023-01-29T15:01:36.652Z,98287.17
2023-01-29T15:04:15.710Z,98285.94
2023-01-29T15:06:48.600Z,98290.48
2023-01-29T15:09:36.380Z,98294.41
2023-01-29T15:12:16.684Z,98292.77
2023-01-29T15:14:53.503Z,98292.70
2023-01-29T15:17:34.255Z,98283.50
2023-01-29T15:20:21.673Z,98278.85
2023-01-29T15:22:52.637Z,98272.64
2023-01-29T15:25:24.876Z,98269.34
2023-01-29T15:27:58.366Z,98270.83
2023-01-29T15:30:34.223Z,98265.59
2023-01-29T15:33:10.726Z,98264.75
2023-01-29T15:35:43.490Z,98263.46
2023-01-29T15:38:20.116Z,98266.72
2023-01-29T15:41:01.862Z,98268.35
2023-01-29T15:43:36.559Z,98275.48
2023-01-29T15:46:13.296Z,98276.02
2023-01-29T15:48:45.702Z,98269.77
2023-01-29T15:51:20.981Z,98265.03
2023-01-29T15:53:54.990Z,98257.15
2023-01-29T15:56:29.188Z,98256.48
2023-01-29T15:59:07.291Z,98253.33
2023-01-29T16:01:40.258Z,98245.20
2023-01-29T16:04:16.164Z,98249.11
2023-01-29T16:06:49.205Z,98250.02
2023-01-29T16:09:23.626Z,98261.16
2023-01-29T16:11:58.725Z,98268.09
2023-01-29T16:14:32.285Z,98273.29
2023-01-29T16:17:22.725Z,98271.27
2023-01-29T16:20:00.323Z,98275.67
2023-01-29T16:22:33.824Z,98279.89
2023-01-29T16:25:13.622Z,98276.66
2023-01-29T16:27:46.357Z,98273.52
2023-01-29T16:30:19.849Z,98273.98
2023-01-29T16:32:51.947Z,98273.26
2023-01-29T16:35:23.036Z,98274.98
2023-01-29T16:37:56.123Z,98278.45
2023-01-29T16:40:33.294Z,98274.27
2023-01-29T16:43:42.517Z,98273.11
2023-01-29T16:46:22.585Z,98274.51
2023-01-29T16:48:54.163Z,98270.21
2023-01-29T16:51:29.127Z,98271.37
2023-01-29T16:54:11.023Z,98274.70
2023-01-29T16:56:45.624Z,98273.54
2023-01-29T16:59:20.923Z,98273.81
2023-01-29T17:01:52.280Z,98267.15
2023-01-29T17:04:23.670Z,98263.53
2023-01-29T17:06:59.970Z,98262.45
2023-01-29T17:09:34.063Z,98258.71
2023-01-29T17:12:08.045Z,98255.91
2023-01-29T17:14:42.093Z,98250.04
2023-01-29T17:17:19.603Z,98242.77
2023-01-29T17:19:51.017Z,98239.47
2023-01-29T17:22:20.621Z,98237.09
2023-01-29T17:24:52.123Z,98233.85
2023-01-29T17:27:24.453Z,98232.48
2023-01-29T17:29:55.900Z,98232.35
2023-01-29T17:32:44.225Z,98237.40
2023-01-29T17:35:17.741Z,98233.41
2023-01-29T17:37:49.111Z,98225.52
2023-01-29T17:40:29.673Z,98217.32
2023-01-29T17:43:01.043Z,98212.40
2023-01-29T17:45:32.237Z,98204.29
2023-01-29T17:48:03.355Z,98199.15
2023-01-29T17:50:35.523Z,98198.36
2023-01-29T17:53:06.477Z,98195.28
2023-01-29T17:55:37.884Z,98193.17
2023-01-29T17:58:10.650Z,98191.86
2023-01-29T18:00:41.745Z,98187.99
2023-01-29T18:03:12.738Z,98185.09
2023-01-29T18:05:44.895Z,98182.84
2023-01-29T18:08:19.889Z,98185.55
2023-01-29T18:10:51.095Z,98179.95
2023-01-29T18:13:22.061Z,98176.21
2023-01-29T18:15:53.518Z,98172.63
2023-01-29T18:18:25.549Z,98166.74
2023-01-29T18:20:56.555Z,98170.34
2023-01-29T18:23:29.472Z,98171.52
2023-01-29T18:26:00.946Z,98170.61
2023-01-29T18:28:32.073Z,98166.77
2023-01-29T18:31:05.960Z,98164.23
2023-01-29T18:33:37.941Z,98157.83
2023-01-29T18:36:10.631Z,98154.76
2023-01-29T18:38:42.080Z,98156.30
2023-01-29T18:41:13.296Z,98159.93
2023-01-29T18:43:44.390Z,98161.48
2023-01-29T18:46:15.716Z,98155.41
2023-01-29T18:48:46.763Z,98155.38
2023-01-29T18:51:17.974Z,98156.23
2023-01-29T18:53:52.730Z,98159.32
2023-01-29T18:56:23.605Z,98162.13
2023-01-29T18:58:57.325Z,98163.79
2023-01-29T19:01:28.349Z,98164.30
2023-01-29T19:04:00.376Z,98162.98
2023-01-29T19:06:33.588Z,98160.56
2023-01-29T19:09:05.025Z,98156.83
2023-01-29T19:11:34.728Z,98151.08
2023-01-29T19:14:05.991Z,98146.85
2023-01-29T19:16:37.077Z,98145.59
2023-01-29T19:19:08.123Z,98147.56
2023-01-29T19:21:39.411Z,98145.05
2023-01-29T19:24:12.017Z,98142.84
2023-01-29T19:26:43.172Z,98145.21
2023-01-29T19:29:14.375Z,98134.02
2023-01-29T19:31:45.549Z,98134.73
2023-01-29T19:34:16.960Z,98137.64
2023-01-29T19:36:46.472Z,98132.95
2023-01-29T19:39:17.841Z,98136.84
2023-01-29T19:41:49.255Z,98136.95
2023-01-29T19:44:18.952Z,98136.00
2023-01-29T19:46:49.864Z,98137.48
2023-01-29T19:49:20.869Z,98135.11
2023-01-29T19:51:51.866Z,98128.62
2023-01-29T19:54:23.087Z,98129.65
2023-01-29T19:56:54.363Z,98133.18
2023-01-29T19:59:25.471Z,98129.34
2023-01-29T20:01:56.445Z,98124.88
2023-01-29T20:04:27.817Z,98117.67
2023-01-29T20:06:59.491Z,98108.16
2023-01-29T20:09:30.960Z,98104.42
2023-01-29T20:12:02.069Z,98101.45
2023-01-29T20:14:35.788Z,98098.70
2023-01-29T20:17:07.855Z,98095.46
2023-01-29T20:19:39.181Z,98091.71
2023-01-29T20:22:10.447Z,98087.72
2023-01-29T20:24:43.439Z,98080.16
2023-01-29T20:27:14.692Z,98080.95
2023-01-29T20:29:46.712Z,98078.26
2023-01-29T20:32:17.849Z,98072.95
2023-01-29T20:34:52.266Z,98066.90
2023-01-29T20:37:23.613Z,98054.60
2023-01-29T20:39:54.503Z,98055.95
2023-01-29T20:42:25.516Z,98057.27
2023-01-29T20:44:56.691Z,98059.86
2023-01-29T20:47:27.740Z,98053.58
2023-01-29T20:49:58.745Z,98048.83
2023-01-29T20:52:29.617Z,98046.23
2023-01-29T20:55:00.714Z,98037.16
2023-01-29T20:57:31.693Z,98029.52
2023-01-29T21:00:02.837Z,98024.75
2023-01-29T21:02:34.435Z,98021.92
2023-01-29T21:05:06.652Z,98016.02
2023-01-29T21:07:37.783Z,98021.54
2023-01-29T21:10:10.520Z,98017.98
2023-01-29T21:12:41.504Z,98015.08
2023-01-29T21:15:13.650Z,98020.94
2023-01-29T21:17:44.742Z,98020.58
2023-01-29T21:20:17.080Z,98021.66
2023-01-29T21:22:49.191Z,98015.55
2023-01-29T21:25:21.433Z,98016.92
2023-01-29T21:27:52.643Z,98012.72
2023-01-29T21:30:24.453Z,98011.85
2023-01-29T21:32:55.557Z,98012.69
2023-01-29T21:35:26.736Z,98012.21
2023-01-29T21:37:57.864Z,98008.00
2023-01-29T21:40:30.548Z,98004.14
2023-01-29T21:43:15.568Z,98002.20
2023-01-29T21:45:46.966Z,97997.50
2023-01-29T21:48:17.844Z,97992.73
2023-01-29T21:50:49.533Z,97991.00
2023-01-29T21:53:19.139Z,97988.21
2023-01-29T21:55:50.979Z,97983.73
2023-01-29T21:58:21.969Z,97977.43
2023-01-29T22:00:53.170Z,97973.77
2023-01-29T22:03:24.454Z,97973.38
2023-01-29T22:05:55.777Z,97966.40
2023-01-29T22:08:26.989Z,97961.98
2023-01-29T22:10:58.507Z,97957.11
2023-01-29T22:13:29.580Z,97962.98
2023-01-29T22:16:00.860Z,97967.98
2023-01-29T22:18:31.958Z,97957.96
2023-01-29T22:21:03.917Z,97951.13
2023-01-29T22:23:35.076Z,97950.30
2023-01-29T22:26:09.077Z,97944.98
2023-01-29T22:28:40.567Z,97947.38
2023-01-29T22:31:11.841Z,97945.56
2023-01-29T22:33:44.101Z,97944.95
2023-01-29T22:36:17.752Z,97945.39
2023-01-29T22:38:49.141Z,97938.84
2023-01-29T22:41:20.184Z,97929.66
2023-01-29T22:43:51.391Z,97926.63
2023-01-29T22:46:21.191Z,97924.31
2023-01-29T22:48:52.614Z,97929.67
2023-01-29T22:51:23.699Z,97925.77
2023-01-29T22:53:55.992Z,97914.73
2023-01-29T22:56:29.760Z,97902.33
2023-01-29T22:59:02.173Z,97898.61
2023-01-29T23:01:34.069Z,97891.12
2023-01-29T23:04:05.143Z,97889.89
2023-01-29T23:06:36.731Z,97886.48
2023-01-29T23:09:06.279Z,97882.20
2023-01-29T23:11:37.322Z,97878.20
2023-01-29T23:14:08.318Z,97873.84
2023-01-29T23:16:39.303Z,97869.13
2023-01-29T23:19:11.278Z,97869.64
2023-01-29T23:21:42.373Z,97866.74
2023-01-29T23:24:14.042Z,97863.35
2023-01-29T23:27:15.369Z,97853.40
2023-01-29T23:29:47.632Z,97842.90
2023-01-29T23:32:20.710Z,97845.15
2023-01-29T23:34:51.810Z,97837.09
2023-01-29T23:37:22.850Z,97838.95
2023-01-29T23:39:54.219Z,97838.05
2023-01-29T23:42:25.306Z,97832.45
2023-01-29T23:44:56.307Z,97821.55
2023-01-29T23:47:27.315Z,97811.39
2023-01-29T23:49:58.380Z,97800.63
2023-01-29T23:52:29.542Z,97793.33
2023-01-29T23:55:00.619Z,97793.42
2023-01-29T23:57:31.819Z,97795.65
